Riverdale, NE (68870)

9:36 PM CDT on July 06, 2015 (GMT -0500)
Regency | | Change Station
CLOSE
Current Station
Personal Weather Station
Location: Kearney, NE
Elevation: 2224 ft
Nearby Weather Stations

Elev 2224 ft 40.72 °N, 99.08 °W | Updated 25 seconds ago

Clear
Clear
64.8 °F
Feels Like 64.8 °F
N
0.0
Wind Variable Wind from NNE
Gusts 0.0 mph

Today
High -- | Low -- °F
--% Chance of Precip.
Yesterday
High -- | Low -- °F
Precip. -- in
6:11 AM 9:10 PM
Waning Gibbous, 70% visible
Pressure 30.11 in
Visibility 4.0 miles
Clouds Mostly Cloudy 4800 ft
Dew Point 56 °F
Humidity 73%
Rainfall 0.19 in
Snow Depth Not available.
UV 0 out of 12
Pollen 2.30 out of 12
Air Quality Not available.
Flu Activity Not available.
METAR KEAR 070215Z AUTO 01010KT 4SM BKN048 19/13 A3011 RMK AO1

More Conditions Fewer Conditions

Pressure 30.11 in
Visibility 4.0 miles
Clouds Mostly Cloudy 4800 ft
Dew Point 56 °F
Humidity 73%
Rainfall 0.19 in
Snow Depth Not available.
UV 0 out of 12
Pollen 2.30 out of 12
Air Quality Not available.
Flu Activity Not available.
METAR KEAR 070215Z AUTO 01010KT 4SM BKN048 19/13 A3011 RMK AO1

More Conditions Fewer Conditions

Nowcast | as of 4:14 PM CDT on July 6, 2015

An area of smoke behind a cold front is moving south across the area. This smoke originated from fires in Canada. Expect visibility of generally 3 to 6 miles for a few miles as the smoke moves south...with some locations briefly dropping below 3 miles visibility. The smoke will clear from north to south and should clear out before 10 PM for most locations.

×

10-Day Weather Forecast

×

Almanac

Astronomy

Jul. 06, 2015 Rise Set
Actual Time
Civil Twilight
Nautical Twilight
Astronomical Twilight
Moon
Length of Visible Light
Length of Day
Tomorrow will be .
, % of the Moon is Illuminated

Today's Extremes

State Highs State Lows

Community

WunderPhotos

Upload Photos

1,835,692 photos uploaded!

WunderBlogs® & News

Nearby

Air Quality

  Air Quality AQ Index Pollutant
Not available.

Snow Depth

Station Depth Elevation

Earthquake Activity

City Distance Mag. Time & Date
Minimum magnitude displayed is 2.5.

Coastal Water Temperatures

Place Temperature

Stations

Nearby Weather Stations

Station Location Temp. Windchill Dew Point Humidity Wind Precip. Elev Updated Type